sensor_id;sensor_type;location;lat;lon;timestamp;pressure;altitude;pressure_sealevel;temperature;humidity
12951;BME280;6540;50.858;7.232;2022-10-13T00:01:45;51886.81;;;-142.34;33.25
12951;BME280;6540;50.858;7.232;2022-10-13T00:04:10;51874.72;;;-142.34;33.05
12951;BME280;6540;50.858;7.232;2022-10-13T00:06:36;51862.63;;;-142.34;36.17
12951;BME280;6540;50.858;7.232;2022-10-13T00:09:01;51878.75;;;-142.34;33.64
12951;BME280;6540;50.858;7.232;2022-10-13T00:11:28;51884.81;;;-142.34;34.09
12951;BME280;6540;50.858;7.232;2022-10-13T00:13:56;51878.75;;;-142.34;34.47
12951;BME280;6540;50.858;7.232;2022-10-13T00:16:22;51886.81;;;-142.34;34.82
12951;BME280;6540;50.858;7.232;2022-10-13T00:18:48;51882.78;;;-142.34;36.90
12951;BME280;6540;50.858;7.232;2022-10-13T00:21:18;51894.88;;;-142.34;35.97
12951;BME280;6540;50.858;7.232;2022-10-13T00:23:43;51874.72;;;-142.34;36.57
12951;BME280;6540;50.858;7.232;2022-10-13T00:26:11;51900.94;;;-142.34;36.44
12951;BME280;6540;50.858;7.232;2022-10-13T00:28:37;51874.72;;;-142.34;36.58
12951;BME280;6540;50.858;7.232;2022-10-13T00:31:03;51874.72;;;-142.34;34.68
12951;BME280;6540;50.858;7.232;2022-10-13T00:33:28;51915.06;;;-142.34;35.30
12951;BME280;6540;50.858;7.232;2022-10-13T00:35:53;51898.94;;;-142.34;34.81
12951;BME280;6540;50.858;7.232;2022-10-13T00:38:20;51886.81;;;-142.34;34.41
12951;BME280;6540;50.858;7.232;2022-10-13T00:40:52;51898.94;;;-142.34;34.78
12951;BME280;6540;50.858;7.232;2022-10-13T00:43:20;51890.84;;;-142.34;34.06
12951;BME280;6540;50.858;7.232;2022-10-13T00:45:48;51919.09;;;-142.34;35.63
12951;BME280;6540;50.858;7.232;2022-10-13T00:48:16;51902.97;;;-142.34;36.29
12951;BME280;6540;50.858;7.232;2022-10-13T00:50:43;51898.94;;;-142.34;34.77
12951;BME280;6540;50.858;7.232;2022-10-13T00:53:09;51923.13;;;-142.34;34.28
12951;BME280;6540;50.858;7.232;2022-10-13T00:55:37;51913.03;;;-142.34;34.60
12951;BME280;6540;50.858;7.232;2022-10-13T00:58:05;51913.03;;;-142.34;34.40
12951;BME280;6540;50.858;7.232;2022-10-13T01:00:33;51890.84;;;-142.34;33.23
12951;BME280;6540;50.858;7.232;2022-10-13T01:03:00;51915.06;;;-142.34;33.56
12951;BME280;6540;50.858;7.232;2022-10-13T01:05:26;51935.25;;;-142.34;32.93
12951;BME280;6540;50.858;7.232;2022-10-13T01:07:52;51884.81;;;-142.34;34.73
12951;BME280;6540;50.858;7.232;2022-10-13T01:13:04;51870.69;;;-142.34;35.03
12951;BME280;6540;50.858;7.232;2022-10-13T01:15:49;51890.84;;;-142.34;35.11
12951;BME280;6540;50.858;7.232;2022-10-13T01:21:13;51898.94;;;-142.34;34.70
12951;BME280;6540;50.858;7.232;2022-10-13T01:34:22;51882.78;;;-142.34;36.81
12951;BME280;6540;50.858;7.232;2022-10-13T01:36:56;51915.06;;;-142.34;36.02
12951;BME280;6540;50.858;7.232;2022-10-13T01:39:37;51890.84;;;-142.34;36.12
12951;BME280;6540;50.858;7.232;2022-10-13T01:42:09;51898.94;;;-142.34;36.54
12951;BME280;6540;50.858;7.232;2022-10-13T01:44:40;51929.19;;;-142.34;37.72
12951;BME280;6540;50.858;7.232;2022-10-13T01:47:09;51921.13;;;-142.34;37.48
12951;BME280;6540;50.858;7.232;2022-10-13T01:49:36;51935.25;;;-142.34;37.00
12951;BME280;6540;50.858;7.232;2022-10-13T01:52:08;51941.28;;;-142.34;38.42
12951;BME280;6540;50.858;7.232;2022-10-13T01:54:34;51892.88;;;-142.34;38.04
12951;BME280;6540;50.858;7.232;2022-10-13T01:56:59;51911.03;;;-142.34;38.67
12951;BME280;6540;50.858;7.232;2022-10-13T01:59:27;51894.88;;;-142.34;38.80
12951;BME280;6540;50.858;7.232;2022-10-13T02:07:20;51913.03;;;-142.34;38.24
12951;BME280;6540;50.858;7.232;2022-10-13T02:09:58;51904.97;;;-142.34;37.94
12951;BME280;6540;50.858;7.232;2022-10-13T02:12:35;51919.09;;;-142.34;38.33
12951;BME280;6540;50.858;7.232;2022-10-13T02:15:04;51941.28;;;-142.34;36.42
12951;BME280;6540;50.858;7.232;2022-10-13T02:17:33;51929.19;;;-142.34;37.35
12951;BME280;6540;50.858;7.232;2022-10-13T02:19:59;51925.16;;;-142.34;38.30
12951;BME280;6540;50.858;7.232;2022-10-13T02:22:29;51898.94;;;-142.34;37.14
12951;BME280;6540;50.858;7.232;2022-10-13T02:24:56;51939.28;;;-142.34;37.09
12951;BME280;6540;50.858;7.232;2022-10-13T02:27:21;51931.19;;;-142.34;36.05
12951;BME280;6540;50.858;7.232;2022-10-13T02:29:56;51935.25;;;-142.34;35.29
12951;BME280;6540;50.858;7.232;2022-10-13T02:32:22;51947.34;;;-142.34;36.56
12951;BME280;6540;50.858;7.232;2022-10-13T02:34:48;51943.31;;;-142.34;36.75
12951;BME280;6540;50.858;7.232;2022-10-13T02:37:13;51935.25;;;-142.34;39.31
12951;BME280;6540;50.858;7.232;2022-10-13T02:39:39;51929.19;;;-142.34;35.71
12951;BME280;6540;50.858;7.232;2022-10-13T02:42:04;51955.41;;;-142.34;37.38
12951;BME280;6540;50.858;7.232;2022-10-13T02:44:30;51898.94;;;-142.34;37.85
12951;BME280;6540;50.858;7.232;2022-10-13T02:46:56;51949.34;;;-142.34;38.15
12951;BME280;6540;50.858;7.232;2022-10-13T02:49:21;51904.97;;;-142.34;37.74
12951;BME280;6540;50.858;7.232;2022-10-13T02:51:46;51947.34;;;-142.34;36.63
12951;BME280;6540;50.858;7.232;2022-10-13T02:54:12;51947.34;;;-142.34;36.92
12951;BME280;6540;50.858;7.232;2022-10-13T02:56:37;51971.53;;;-142.34;36.94
12951;BME280;6540;50.858;7.232;2022-10-13T02:59:02;51951.38;;;-142.34;36.25
12951;BME280;6540;50.858;7.232;2022-10-13T03:01:28;51911.03;;;-142.34;39.56
12951;BME280;6540;50.858;7.232;2022-10-13T03:03:53;51931.19;;;-142.34;37.09
12951;BME280;6540;50.858;7.232;2022-10-13T03:06:19;51927.16;;;-142.34;37.04
12951;BME280;6540;50.858;7.232;2022-10-13T03:08:44;51959.44;;;-142.34;35.64
12951;BME280;6540;50.858;7.232;2022-10-13T03:11:10;51919.09;;;-142.34;35.98
12951;BME280;6540;50.858;7.232;2022-10-13T03:13:35;51947.34;;;-142.34;37.41
12951;BME280;6540;50.858;7.232;2022-10-13T03:16:01;51925.16;;;-142.34;36.97
12951;BME280;6540;50.858;7.232;2022-10-13T03:18:26;51941.28;;;-142.34;35.35
12951;BME280;6540;50.858;7.232;2022-10-13T03:20:59;51911.03;;;-142.34;36.76
12951;BME280;6540;50.858;7.232;2022-10-13T03:23:26;51923.13;;;-142.34;37.46
12951;BME280;6540;50.858;7.232;2022-10-13T03:25:51;51923.13;;;-142.34;38.49
12951;BME280;6540;50.858;7.232;2022-10-13T03:28:17;51933.22;;;-142.34;36.94
12951;BME280;6540;50.858;7.232;2022-10-13T03:30:42;51955.41;;;-142.34;36.00
12951;BME280;6540;50.858;7.232;2022-10-13T03:33:08;51894.88;;;-142.34;36.22
12951;BME280;6540;50.858;7.232;2022-10-13T03:35:33;51939.28;;;-142.34;36.43
12951;BME280;6540;50.858;7.232;2022-10-13T03:37:58;51961.47;;;-142.34;36.84
12951;BME280;6540;50.858;7.232;2022-10-13T03:40:24;51915.06;;;-142.34;35.65
12951;BME280;6540;50.858;7.232;2022-10-13T03:42:49;51898.94;;;-142.34;38.22
12951;BME280;6540;50.858;7.232;2022-10-13T03:45:15;51943.31;;;-142.34;38.33
12951;BME280;6540;50.858;7.232;2022-10-13T03:47:40;51917.06;;;-142.34;36.61
12951;BME280;6540;50.858;7.232;2022-10-13T03:50:06;51927.16;;;-142.34;36.96
12951;BME280;6540;50.858;7.232;2022-10-13T03:52:31;51907.00;;;-142.34;36.29
12951;BME280;6540;50.858;7.232;2022-10-13T03:54:57;51929.19;;;-142.34;36.15
12951;BME280;6540;50.858;7.232;2022-10-13T03:57:22;51927.16;;;-142.34;36.62
12951;BME280;6540;50.858;7.232;2022-10-13T03:59:48;51935.25;;;-142.34;36.78
12951;BME280;6540;50.858;7.232;2022-10-13T04:02:13;51882.78;;;-142.34;36.55
12951;BME280;6540;50.858;7.232;2022-10-13T04:04:38;51927.16;;;-142.34;38.77
12951;BME280;6540;50.858;7.232;2022-10-13T04:07:04;51902.97;;;-142.34;37.14
12951;BME280;6540;50.858;7.232;2022-10-13T04:09:30;51927.16;;;-142.34;36.99
12951;BME280;6540;50.858;7.232;2022-10-13T04:11:56;51989.69;;;-142.34;36.66
12951;BME280;6540;50.858;7.232;2022-10-13T04:14:21;51939.28;;;-142.34;37.51
12951;BME280;6540;50.858;7.232;2022-10-13T04:16:46;51963.47;;;-142.34;37.33
12951;BME280;6540;50.858;7.232;2022-10-13T04:19:13;51923.13;;;-142.34;35.69
12951;BME280;6540;50.858;7.232;2022-10-13T04:21:39;51913.03;;;-142.34;35.00
12951;BME280;6540;50.858;7.232;2022-10-13T04:24:05;51931.19;;;-142.34;35.61
12951;BME280;6540;50.858;7.232;2022-10-13T04:26:34;51917.06;;;-142.34;34.24
12951;BME280;6540;50.858;7.232;2022-10-13T04:29:02;51919.09;;;-142.34;33.42
12951;BME280;6540;50.858;7.232;2022-10-13T04:31:28;51929.19;;;-142.34;35.12
12951;BME280;6540;50.858;7.232;2022-10-13T04:33:53;51902.97;;;-142.34;37.54
12951;BME280;6540;50.858;7.232;2022-10-13T04:36:19;51890.84;;;-142.34;37.24
12951;BME280;6540;50.858;7.232;2022-10-13T04:38:44;51896.91;;;-142.34;38.16
12951;BME280;6540;50.858;7.232;2022-10-13T04:41:10;51890.84;;;-142.34;37.33
12951;BME280;6540;50.858;7.232;2022-10-13T04:43:36;51902.97;;;-142.34;37.71
12951;BME280;6540;50.858;7.232;2022-10-13T04:46:08;51913.03;;;-142.34;36.00
12951;BME280;6540;50.858;7.232;2022-10-13T04:48:34;51939.28;;;-142.34;35.64
12951;BME280;6540;50.858;7.232;2022-10-13T04:51:05;51898.94;;;-142.34;36.31
12951;BME280;6540;50.858;7.232;2022-10-13T04:53:31;51939.28;;;-142.34;35.45
12951;BME280;6540;50.858;7.232;2022-10-13T04:56:00;51909.00;;;-142.34;34.61
12951;BME280;6540;50.858;7.232;2022-10-13T04:58:26;51894.88;;;-142.34;36.75
12951;BME280;6540;50.858;7.232;2022-10-13T05:00:51;51919.09;;;-142.34;37.50
12951;BME280;6540;50.858;7.232;2022-10-13T05:03:17;51915.06;;;-142.34;37.81
12951;BME280;6540;50.858;7.232;2022-10-13T05:05:42;51919.09;;;-142.34;38.37
12951;BME280;6540;50.858;7.232;2022-10-13T05:08:07;51931.19;;;-142.34;36.39
12951;BME280;6540;50.858;7.232;2022-10-13T05:10:33;51917.06;;;-142.34;36.29
12951;BME280;6540;50.858;7.232;2022-10-13T05:12:59;51931.19;;;-142.34;34.67
12951;BME280;6540;50.858;7.232;2022-10-13T05:15:24;51929.19;;;-142.34;36.66
12951;BME280;6540;50.858;7.232;2022-10-13T05:17:49;51933.22;;;-142.34;35.26
12951;BME280;6540;50.858;7.232;2022-10-13T05:20:15;51909.00;;;-142.34;34.96
12951;BME280;6540;50.858;7.232;2022-10-13T05:22:42;51939.28;;;-142.34;35.49
12951;BME280;6540;50.858;7.232;2022-10-13T05:25:07;51935.25;;;-142.34;35.75
12951;BME280;6540;50.858;7.232;2022-10-13T05:27:32;51919.09;;;-142.34;35.02
12951;BME280;6540;50.858;7.232;2022-10-13T05:29:58;51900.94;;;-142.34;35.96
12951;BME280;6540;50.858;7.232;2022-10-13T05:32:23;51913.03;;;-142.34;37.07
12951;BME280;6540;50.858;7.232;2022-10-13T05:34:48;51959.44;;;-142.34;38.04
12951;BME280;6540;50.858;7.232;2022-10-13T05:37:14;51925.16;;;-142.34;38.08
12951;BME280;6540;50.858;7.232;2022-10-13T05:39:41;51902.97;;;-142.34;34.56
12951;BME280;6540;50.858;7.232;2022-10-13T05:42:07;51933.22;;;-142.34;37.31
12951;BME280;6540;50.858;7.232;2022-10-13T05:44:32;51933.22;;;-142.34;36.67
12951;BME280;6540;50.858;7.232;2022-10-13T05:46:57;51961.47;;;-142.34;38.35
12951;BME280;6540;50.858;7.232;2022-10-13T05:49:23;51927.16;;;-142.34;37.26
12951;BME280;6540;50.858;7.232;2022-10-13T05:51:54;51919.09;;;-142.34;36.15
12951;BME280;6540;50.858;7.232;2022-10-13T05:54:44;51915.06;;;-142.34;35.74
12951;BME280;6540;50.858;7.232;2022-10-13T05:57:13;51904.97;;;-142.34;37.07
12951;BME280;6540;50.858;7.232;2022-10-13T05:59:46;51907.00;;;-142.34;34.65
12951;BME280;6540;50.858;7.232;2022-10-13T06:02:14;51919.09;;;-142.34;35.24
12951;BME280;6540;50.858;7.232;2022-10-13T06:04:44;51880.78;;;-142.34;34.26
12951;BME280;6540;50.858;7.232;2022-10-13T06:07:10;51915.06;;;-142.34;35.25
12951;BME280;6540;50.858;7.232;2022-10-13T06:09:36;51909.00;;;-142.34;35.21
12951;BME280;6540;50.858;7.232;2022-10-13T06:12:07;51915.06;;;-142.34;34.13
12951;BME280;6540;50.858;7.232;2022-10-13T06:14:32;51919.09;;;-142.34;33.95
12951;BME280;6540;50.858;7.232;2022-10-13T06:16:58;51894.88;;;-142.34;34.08
12951;BME280;6540;50.858;7.232;2022-10-13T06:19:23;51890.84;;;-142.34;32.98
12951;BME280;6540;50.858;7.232;2022-10-13T06:21:49;51878.75;;;-142.34;35.10
12951;BME280;6540;50.858;7.232;2022-10-13T06:24:14;51886.81;;;-142.34;34.67
12951;BME280;6540;50.858;7.232;2022-10-13T06:26:40;51878.75;;;-142.34;36.80
12951;BME280;6540;50.858;7.232;2022-10-13T06:29:05;51923.13;;;-142.34;36.08
12951;BME280;6540;50.858;7.232;2022-10-13T06:31:30;51911.03;;;-142.34;34.33
12951;BME280;6540;50.858;7.232;2022-10-13T06:33:57;51898.94;;;-142.34;35.26
12951;BME280;6540;50.858;7.232;2022-10-13T06:36:22;51902.97;;;-142.34;33.01
12951;BME280;6540;50.858;7.232;2022-10-13T06:38:47;51886.81;;;-142.34;33.71
12951;BME280;6540;50.858;7.232;2022-10-13T06:41:13;51892.88;;;-142.34;34.15
12951;BME280;6540;50.858;7.232;2022-10-13T06:43:39;51898.94;;;-142.34;35.17
12951;BME280;6540;50.858;7.232;2022-10-13T06:46:05;51866.66;;;-142.34;33.45
12951;BME280;6540;50.858;7.232;2022-10-13T06:48:30;51898.94;;;-142.34;34.08
12951;BME280;6540;50.858;7.232;2022-10-13T06:51:00;51878.75;;;-142.34;33.44
12951;BME280;6540;50.858;7.232;2022-10-13T06:53:25;51876.72;;;-142.34;33.68
12951;BME280;6540;50.858;7.232;2022-10-13T06:55:55;51907.00;;;-142.34;35.46
12951;BME280;6540;50.858;7.232;2022-10-13T06:58:20;51862.63;;;-142.34;37.55
12951;BME280;6540;50.858;7.232;2022-10-13T07:00:45;51898.94;;;-142.34;36.16
12951;BME280;6540;50.858;7.232;2022-10-13T07:03:11;51888.84;;;-142.34;35.71
12951;BME280;6540;50.858;7.232;2022-10-13T07:05:36;51902.97;;;-142.34;33.56
12951;BME280;6540;50.858;7.232;2022-10-13T07:08:01;51904.97;;;-142.34;34.12
12951;BME280;6540;50.858;7.232;2022-10-13T07:10:27;51880.78;;;-142.34;33.90
12951;BME280;6540;50.858;7.232;2022-10-13T07:12:52;51907.00;;;-142.34;33.90
12951;BME280;6540;50.858;7.232;2022-10-13T07:15:17;51896.91;;;-142.34;33.79
12951;BME280;6540;50.858;7.232;2022-10-13T07:17:43;51907.00;;;-142.34;33.23
12951;BME280;6540;50.858;7.232;2022-10-13T07:20:08;51868.66;;;-142.34;35.82
12951;BME280;6540;50.858;7.232;2022-10-13T07:22:34;51882.78;;;-142.34;35.24
12951;BME280;6540;50.858;7.232;2022-10-13T07:24:59;51894.88;;;-142.34;35.79
12951;BME280;6540;50.858;7.232;2022-10-13T07:27:26;51830.34;;;-142.34;34.10
12951;BME280;6540;50.858;7.232;2022-10-13T07:29:51;51866.66;;;-142.34;34.89
12951;BME280;6540;50.858;7.232;2022-10-13T07:32:17;51900.94;;;-142.34;34.50
12951;BME280;6540;50.858;7.232;2022-10-13T07:34:42;51896.91;;;-142.34;34.09
12951;BME280;6540;50.858;7.232;2022-10-13T07:37:07;51850.50;;;-142.34;34.57
12951;BME280;6540;50.858;7.232;2022-10-13T07:39:33;51917.06;;;-142.34;34.11
12951;BME280;6540;50.858;7.232;2022-10-13T07:41:58;51878.75;;;-142.34;33.73
12951;BME280;6540;50.858;7.232;2022-10-13T07:44:24;51848.50;;;-142.34;33.34
12951;BME280;6540;50.858;7.232;2022-10-13T07:46:49;51842.44;;;-142.34;32.84
12951;BME280;6540;50.858;7.232;2022-10-13T07:49:15;51854.53;;;-142.34;33.51
12951;BME280;6540;50.858;7.232;2022-10-13T07:51:40;51866.66;;;-142.34;35.55
12951;BME280;6540;50.858;7.232;2022-10-13T07:54:06;51884.81;;;-142.34;35.06
12951;BME280;6540;50.858;7.232;2022-10-13T07:56:31;51886.81;;;-142.34;35.45
12951;BME280;6540;50.858;7.232;2022-10-13T07:58:57;51858.56;;;-142.34;34.70
12951;BME280;6540;50.858;7.232;2022-10-13T08:01:22;51862.63;;;-142.34;34.38
12951;BME280;6540;50.858;7.232;2022-10-13T08:03:48;51862.63;;;-142.34;34.29
12951;BME280;6540;50.858;7.232;2022-10-13T08:06:13;51870.69;;;-142.34;36.30
12951;BME280;6540;50.858;7.232;2022-10-13T08:08:39;51850.50;;;-142.34;35.97
12951;BME280;6540;50.858;7.232;2022-10-13T08:11:07;51886.81;;;-142.34;36.82
12951;BME280;6540;50.858;7.232;2022-10-13T08:13:34;51822.25;;;-142.34;35.82
12951;BME280;6540;50.858;7.232;2022-10-13T08:16:00;51858.56;;;-142.34;36.28
12951;BME280;6540;50.858;7.232;2022-10-13T08:18:26;51884.81;;;-142.34;34.24
12951;BME280;6540;50.858;7.232;2022-10-13T08:20:51;51838.41;;;-142.34;35.25
12951;BME280;6540;50.858;7.232;2022-10-13T08:23:16;51826.31;;;-142.34;33.99
12951;BME280;6540;50.858;7.232;2022-10-13T08:25:43;51834.38;;;-142.34;33.87
12951;BME280;6540;50.858;7.232;2022-10-13T08:28:23;51850.50;;;-142.34;33.92
12951;BME280;6540;50.858;7.232;2022-10-13T08:30:50;51858.56;;;-142.34;34.67
12951;BME280;6540;50.858;7.232;2022-10-13T08:33:17;51822.25;;;-142.34;34.15
12951;BME280;6540;50.858;7.232;2022-10-13T08:35:43;51842.44;;;-142.34;35.63
12951;BME280;6540;50.858;7.232;2022-10-13T08:38:08;51866.66;;;-142.34;35.22
12951;BME280;6540;50.858;7.232;2022-10-13T08:40:34;51802.09;;;-142.34;33.61
12951;BME280;6540;50.858;7.232;2022-10-13T08:43:01;51852.53;;;-142.34;34.26
12951;BME280;6540;50.858;7.232;2022-10-13T08:45:29;51794.03;;;-142.34;33.63
12951;BME280;6540;50.858;7.232;2022-10-13T08:48:04;51838.41;;;-142.34;35.78
12951;BME280;6540;50.858;7.232;2022-10-13T08:50:34;51773.84;;;-142.34;35.60
12951;BME280;6540;50.858;7.232;2022-10-13T08:53:03;51828.31;;;-142.34;34.63
12951;BME280;6540;50.858;7.232;2022-10-13T08:55:40;51824.28;;;-142.34;36.22
12951;BME280;6540;50.858;7.232;2022-10-13T09:00:59;51790.00;;;-142.34;35.81
12951;BME280;6540;50.858;7.232;2022-10-13T09:03:29;51798.06;;;-142.34;36.61
12951;BME280;6540;50.858;7.232;2022-10-13T09:08:43;51846.47;;;-142.34;35.24
12951;BME280;6540;50.858;7.232;2022-10-13T09:11:13;51810.16;;;-142.34;35.61
12951;BME280;6540;50.858;7.232;2022-10-13T09:13:39;51814.19;;;-142.34;34.45
12951;BME280;6540;50.858;7.232;2022-10-13T09:16:04;51790.00;;;-142.34;33.22
12951;BME280;6540;50.858;7.232;2022-10-13T09:18:31;51771.84;;;-142.34;33.37
12951;BME280;6540;50.858;7.232;2022-10-13T09:21:24;51777.88;;;-142.34;33.13
12951;BME280;6540;50.858;7.232;2022-10-13T09:23:51;51757.72;;;-142.34;33.33
12951;BME280;6540;50.858;7.232;2022-10-13T09:26:21;51794.03;;;-142.34;35.04
12951;BME280;6540;50.858;7.232;2022-10-13T09:28:48;51757.72;;;-142.34;34.05
12951;BME280;6540;50.858;7.232;2022-10-13T09:31:26;51729.47;;;-142.34;32.06
12951;BME280;6540;50.858;7.232;2022-10-13T09:34:00;51741.56;;;-142.34;33.83
12951;BME280;6540;50.858;7.232;2022-10-13T09:36:27;51729.47;;;-142.34;33.73
12951;BME280;6540;50.858;7.232;2022-10-13T09:39:12;51757.72;;;-142.34;33.37
12951;BME280;6540;50.858;7.232;2022-10-13T09:41:40;51753.69;;;-142.34;34.00
12951;BME280;6540;50.858;7.232;2022-10-13T09:44:15;51773.84;;;-142.34;33.44
12951;BME280;6540;50.858;7.232;2022-10-13T09:46:50;51796.03;;;-142.34;33.82
12951;BME280;6540;50.858;7.232;2022-10-13T09:49:38;51749.66;;;-142.34;33.74
12951;BME280;6540;50.858;7.232;2022-10-13T09:52:05;51729.47;;;-142.34;32.47
12951;BME280;6540;50.858;7.232;2022-10-13T09:54:41;51741.56;;;-142.34;32.87
12951;BME280;6540;50.858;7.232;2022-10-13T09:57:34;51705.25;;;-142.34;32.06
12951;BME280;6540;50.858;7.232;2022-10-13T10:05:22;51693.16;;;-142.34;32.58
12951;BME280;6540;50.858;7.232;2022-10-13T10:07:48;51741.56;;;-142.34;32.40
12951;BME280;6540;50.858;7.232;2022-10-13T10:10:35;51723.41;;;-142.34;32.71
12951;BME280;6540;50.858;7.232;2022-10-13T10:13:02;51713.34;;;-142.34;31.84
12951;BME280;6540;50.858;7.232;2022-10-13T10:15:48;51687.09;;;-142.34;32.33
12951;BME280;6540;50.858;7.232;2022-10-13T10:18:22;51729.47;;;-142.34;32.33
12951;BME280;6540;50.858;7.232;2022-10-13T10:23:22;51677.03;;;-142.34;31.56
12951;BME280;6540;50.858;7.232;2022-10-13T10:25:58;51660.88;;;-142.34;31.24
12951;BME280;6540;50.858;7.232;2022-10-13T10:34:23;51640.72;;;-142.34;30.64
12951;BME280;6540;50.858;7.232;2022-10-13T10:39:20;51681.06;;;-142.34;31.62
12951;BME280;6540;50.858;7.232;2022-10-13T10:42:36;51656.84;;;-142.34;31.21
12951;BME280;6540;50.858;7.232;2022-10-13T10:45:15;51697.19;;;-142.34;32.81
12951;BME280;6540;50.858;7.232;2022-10-13T10:47:43;51733.50;;;-142.34;33.94
12951;BME280;6540;50.858;7.232;2022-10-13T10:50:14;51707.28;;;-142.34;33.13
12951;BME280;6540;50.858;7.232;2022-10-13T10:58:42;51693.16;;;-142.34;31.84
12951;BME280;6540;50.858;7.232;2022-10-13T11:08:44;51683.06;;;-142.34;33.61
12951;BME280;6540;50.858;7.232;2022-10-13T11:17:18;51705.25;;;-142.34;33.65
12951;BME280;6540;50.858;7.232;2022-10-13T11:19:46;51666.94;;;-142.34;31.89
12951;BME280;6540;50.858;7.232;2022-10-13T11:22:14;51693.16;;;-142.34;32.76
12951;BME280;6540;50.858;7.232;2022-10-13T11:40:33;51673.00;;;-142.34;32.34
12951;BME280;6540;50.858;7.232;2022-10-13T11:54:05;51628.63;;;-142.34;31.56
12951;BME280;6540;50.858;7.232;2022-10-13T11:56:55;51677.03;;;-142.34;32.50
12951;BME280;6540;50.858;7.232;2022-10-13T11:59:25;51687.09;;;-142.34;31.65
12951;BME280;6540;50.858;7.232;2022-10-13T12:01:56;51703.25;;;-142.34;32.74
12951;BME280;6540;50.858;7.232;2022-10-13T12:04:23;51681.06;;;-142.34;31.67
12951;BME280;6540;50.858;7.232;2022-10-13T12:06:57;51668.97;;;-142.34;31.11
12951;BME280;6540;50.858;7.232;2022-10-13T12:09:23;51638.69;;;-142.34;31.97
12951;BME280;6540;50.858;7.232;2022-10-13T12:12:12;51652.81;;;-142.34;31.06
12951;BME280;6540;50.858;7.232;2022-10-13T12:14:40;51636.69;;;-142.34;31.09
12951;BME280;6540;50.858;7.232;2022-10-13T12:22:48;51644.75;;;-142.34;31.16
12951;BME280;6540;50.858;7.232;2022-10-13T12:25:18;51675.00;;;-142.34;31.68
12951;BME280;6540;50.858;7.232;2022-10-13T12:27:52;51662.91;;;-142.34;31.82
12951;BME280;6540;50.858;7.232;2022-10-13T12:30:33;51652.81;;;-142.34;31.82
12951;BME280;6540;50.858;7.232;2022-10-13T12:33:03;51656.84;;;-142.34;31.51
12951;BME280;6540;50.858;7.232;2022-10-13T12:35:41;51660.88;;;-142.34;31.94
12951;BME280;6540;50.858;7.232;2022-10-13T12:38:16;51650.81;;;-142.34;31.60
12951;BME280;6540;50.858;7.232;2022-10-13T12:40:42;51640.72;;;-142.34;31.57
12951;BME280;6540;50.858;7.232;2022-10-13T12:43:15;51638.69;;;-142.34;32.14
12951;BME280;6540;50.858;7.232;2022-10-13T12:45:42;51664.91;;;-142.34;32.28
12951;BME280;6540;50.858;7.232;2022-10-13T12:48:36;51668.97;;;-142.34;32.54
12951;BME280;6540;50.858;7.232;2022-10-13T12:53:40;51648.78;;;-142.34;32.87
12951;BME280;6540;50.858;7.232;2022-10-13T12:56:06;51693.16;;;-142.34;33.51
12951;BME280;6540;50.858;7.232;2022-10-13T12:58:33;51660.88;;;-142.34;33.20
12951;BME280;6540;50.858;7.232;2022-10-13T13:03:31;51701.22;;;-142.34;34.07
12951;BME280;6540;50.858;7.232;2022-10-13T13:06:20;51650.81;;;-142.34;32.62
12951;BME280;6540;50.858;7.232;2022-10-13T13:09:16;51612.47;;;-142.34;32.48
12951;BME280;6540;50.858;7.232;2022-10-13T13:11:43;51648.78;;;-142.34;33.78
12951;BME280;6540;50.858;7.232;2022-10-13T13:17:04;51658.88;;;-142.34;32.53
12951;BME280;6540;50.858;7.232;2022-10-13T13:19:30;51656.84;;;-142.34;31.93
12951;BME280;6540;50.858;7.232;2022-10-13T13:21:56;51666.94;;;-142.34;32.11
12951;BME280;6540;50.858;7.232;2022-10-13T13:24:22;51670.97;;;-142.34;32.04
12951;BME280;6540;50.858;7.232;2022-10-13T13:26:47;51628.63;;;-142.34;32.03
12951;BME280;6540;50.858;7.232;2022-10-13T13:29:13;51652.81;;;-142.34;31.11
12951;BME280;6540;50.858;7.232;2022-10-13T13:31:38;51630.63;;;-142.34;31.16
12951;BME280;6540;50.858;7.232;2022-10-13T13:34:03;51624.56;;;-142.34;31.72
12951;BME280;6540;50.858;7.232;2022-10-13T13:36:29;51628.63;;;-142.34;31.88
12951;BME280;6540;50.858;7.232;2022-10-13T13:38:55;51654.84;;;-142.34;31.69
12951;BME280;6540;50.858;7.232;2022-10-13T13:41:20;51616.50;;;-142.34;31.27
12951;BME280;6540;50.858;7.232;2022-10-13T13:43:45;51642.72;;;-142.34;31.38
12951;BME280;6540;50.858;7.232;2022-10-13T13:46:20;51638.69;;;-142.34;31.16
12951;BME280;6540;50.858;7.232;2022-10-13T13:48:47;51646.75;;;-142.34;31.33
12951;BME280;6540;50.858;7.232;2022-10-13T13:51:12;51677.03;;;-142.34;32.52
12951;BME280;6540;50.858;7.232;2022-10-13T13:53:38;51666.94;;;-142.34;32.69
12951;BME280;6540;50.858;7.232;2022-10-13T13:56:04;51701.22;;;-142.34;32.44
12951;BME280;6540;50.858;7.232;2022-10-13T13:58:30;51646.75;;;-142.34;31.86
12951;BME280;6540;50.858;7.232;2022-10-13T14:00:55;51701.22;;;-142.34;32.13
12951;BME280;6540;50.858;7.232;2022-10-13T14:03:20;51685.09;;;-142.34;32.73
12951;BME280;6540;50.858;7.232;2022-10-13T14:05:46;51673.00;;;-142.34;32.39
12951;BME280;6540;50.858;7.232;2022-10-13T14:08:11;51658.88;;;-142.34;32.14
12951;BME280;6540;50.858;7.232;2022-10-13T14:10:38;51642.72;;;-142.34;31.84
12951;BME280;6540;50.858;7.232;2022-10-13T14:13:04;51668.97;;;-142.34;32.53
12951;BME280;6540;50.858;7.232;2022-10-13T14:15:29;51652.81;;;-142.34;32.02
12951;BME280;6540;50.858;7.232;2022-10-13T14:17:55;51658.88;;;-142.34;31.86
12951;BME280;6540;50.858;7.232;2022-10-13T14:20:21;51677.03;;;-142.34;32.13
12951;BME280;6540;50.858;7.232;2022-10-13T14:22:46;51624.56;;;-142.34;31.69
12951;BME280;6540;50.858;7.232;2022-10-13T14:25:11;51681.06;;;-142.34;32.19
12951;BME280;6540;50.858;7.232;2022-10-13T14:27:37;51630.63;;;-142.34;31.59
12951;BME280;6540;50.858;7.232;2022-10-13T14:30:04;51673.00;;;-142.34;31.80
12951;BME280;6540;50.858;7.232;2022-10-13T14:32:30;51677.03;;;-142.34;32.01
12951;BME280;6540;50.858;7.232;2022-10-13T14:34:55;51681.06;;;-142.34;32.87
12951;BME280;6540;50.858;7.232;2022-10-13T14:37:20;51644.75;;;-142.34;32.25
12951;BME280;6540;50.858;7.232;2022-10-13T14:39:46;51660.88;;;-142.34;32.28